Time;durP1;ratioP1;P1;durP2;ratioP2;P2;SDS_P1;SDS_P2;PMS_P1;PMS_P2;Temp;Humidity;BMP_temperature;BMP_pressure;BME280_temperature;BME280_humidity;BME280_pressure;Samples;Min_cycle;Max_cycle;Signal;HPM_P1;HPM_P2
2022/08/11 00:02:46;;;;;;;2.87;2.53;;;14.60;99.90;16.10;97431.00;;;;5063146;28;20223;-88
2022/08/11 00:05:45;;;;;;;3.00;2.80;;;14.70;99.90;15.90;97428.00;;;;5065685;28;20231;-88
2022/08/11 00:08:36;;;;;;;2.67;2.47;;;14.70;99.90;15.50;97425.00;;;;5053237;28;20212;-87
2022/08/11 00:11:35;;;;;;;3.97;2.77;;;14.70;99.90;15.00;97432.00;;;;5052896;28;20223;-87
2022/08/11 00:14:26;;;;;;;4.13;2.67;;;14.50;99.90;15.20;97423.00;;;;5061917;28;20219;-88
2022/08/11 00:17:17;;;;;;;2.47;2.27;;;14.40;99.90;15.30;97432.00;;;;5065546;28;20227;-87
2022/08/11 00:20:10;;;;;;;3.07;2.80;;;14.30;99.90;14.90;97427.00;;;;5056240;28;20196;-86
2022/08/11 00:23:08;;;;;;;2.87;2.50;;;14.20;99.90;15.20;97441.00;;;;5063088;28;20209;-87
2022/08/11 00:25:59;;;;;;;3.13;2.83;;;14.20;99.90;15.30;97434.00;;;;5077939;28;20216;-85
2022/08/11 00:28:50;;;;;;;2.27;2.07;;;14.20;99.90;15.10;97436.00;;;;5074021;28;20429;-86
2022/08/11 00:31:44;;;;;;;2.90;2.60;;;14.10;99.90;15.40;97437.00;;;;5052391;28;20227;-86
2022/08/11 00:34:36;;;;;;;3.70;2.07;;;14.10;99.90;15.20;97426.00;;;;5058397;28;20197;-87
2022/08/11 00:37:26;;;;;;;2.73;2.37;;;14.20;99.90;15.00;97422.00;;;;5060483;28;20235;-87
2022/08/11 00:40:36;;;;;;;4.23;2.37;;;14.10;99.90;14.40;97425.00;;;;5061465;28;20201;-86
2022/08/11 00:43:47;;;;;;;3.80;3.00;;;13.90;99.90;14.60;97427.00;;;;5062416;28;20206;-87
2022/08/11 00:46:51;;;;;;;3.03;2.77;;;13.80;99.90;14.80;97410.00;;;;5060186;28;20227;-87
2022/08/11 00:49:55;;;;;;;3.13;2.50;;;13.70;99.90;14.50;97419.00;;;;5049803;28;20196;-87
2022/08/11 00:53:13;;;;;;;2.83;2.30;;;13.70;99.90;14.40;97415.00;;;;5054112;28;20228;-87
2022/08/11 00:56:59;;;;;;;3.40;2.83;;;13.60;99.90;14.20;97411.00;;;;5056983;28;20212;-87
2022/08/11 01:00:14;;;;;;;3.10;2.80;;;13.50;99.90;14.10;97407.00;;;;5062648;28;20204;-87
2022/08/11 01:03:25;;;;;;;3.70;2.83;;;13.40;99.90;14.30;97412.00;;;;5056209;28;20211;-87
2022/08/11 01:06:45;;;;;;;2.70;2.50;;;13.40;99.90;14.20;97411.00;;;;5054827;28;20311;-87
2022/08/11 01:09:59;;;;;;;3.77;3.07;;;13.30;99.90;14.50;97416.00;;;;5060333;28;20685;-87
2022/08/11 01:13:08;;;;;;;3.47;3.13;;;13.30;99.90;14.50;97415.00;;;;5057025;28;20216;-86
2022/08/11 01:16:13;;;;;;;3.63;3.33;;;13.40;99.90;14.30;97409.00;;;;5061449;28;20212;-87
2022/08/11 01:19:46;;;;;;;6.87;3.03;;;13.40;99.90;14.20;97410.00;;;;5054292;28;20197;-86
2022/08/11 01:23:33;;;;;;;3.07;2.87;;;13.30;99.90;13.80;97410.00;;;;5053357;28;20215;-86
2022/08/11 01:27:32;;;;;;;3.80;2.67;;;13.20;99.90;14.00;97406.00;;;;5053911;28;20231;-87
2022/08/11 01:31:21;;;;;;;3.47;2.97;;;13.00;99.90;13.90;97404.00;;;;5056898;28;20204;-87
2022/08/11 01:35:18;;;;;;;5.40;3.10;;;13.00;99.90;13.60;97407.00;;;;5053688;28;20201;-87
2022/08/11 01:39:10;;;;;;;5.33;2.60;;;12.90;99.90;13.70;97398.00;;;;5058797;28;20221;-87
2022/08/11 01:45:53;;;;;;;3.37;2.80;;;12.90;99.90;13.70;97401.00;;;;5016320;28;20237;-87
2022/08/11 01:48:45;;;;;;;3.33;2.87;;;12.90;99.90;13.80;97391.00;;;;5057161;28;20200;-87
2022/08/11 01:52:04;;;;;;;2.90;2.70;;;12.90;99.90;13.60;97387.00;;;;5074333;28;20225;-86
2022/08/11 01:55:07;;;;;;;4.33;2.20;;;12.80;99.90;13.90;97376.00;;;;5075216;28;20251;-87
2022/08/11 01:58:08;;;;;;;6.80;3.30;;;12.80;99.90;13.80;97383.00;;;;5055796;28;20196;-86
2022/08/11 02:01:11;;;;;;;4.20;3.13;;;12.80;99.90;13.50;97380.00;;;;5065084;28;20203;-87
2022/08/11 02:04:11;;;;;;;3.17;2.90;;;12.70;99.90;13.20;97378.00;;;;5064914;28;20202;-86
2022/08/11 02:07:14;;;;;;;3.70;2.97;;;12.60;99.90;13.10;97383.00;;;;5053106;28;20227;-87
2022/08/11 02:13:36;;;;;;;3.50;3.20;;;12.40;99.90;13.20;97370.00;;;;5052773;28;20232;-86
2022/08/11 02:16:40;;;;;;;5.47;4.35;;;12.40;99.90;13.00;97378.00;;;;5063750;28;20473;-86
2022/08/11 02:26:11;;;;;;;3.70;3.40;;;12.20;99.90;12.90;97364.00;;;;5054330;28;20229;-87
2022/08/11 02:29:12;;;;;;;3.63;3.20;;;12.10;99.90;13.20;97360.00;;;;5068879;28;20215;-87
2022/08/11 02:35:25;;;;;;;3.70;3.03;;;12.30;99.90;12.60;97357.00;;;;5042808;28;20638;-87
2022/08/11 02:38:28;;;;;;;3.40;3.00;;;12.20;99.90;12.50;97352.00;;;;5060331;28;20687;-87
2022/08/11 02:44:47;;;;;;;3.80;3.20;;;12.00;99.90;12.40;97367.00;;;;5063085;28;20195;-87
2022/08/11 02:49:52;;;;;;;3.40;3.10;;;11.90;99.90;12.30;97362.00;;;;5060124;28;20203;-86
2022/08/11 02:51:22;;;;;;;11.63;3.87;;;11.80;99.90;12.40;97361.00;;;;5052680;28;20589;-89
2022/08/11 02:54:23;;;;;;;4.27;3.20;;;11.70;99.90;12.60;97366.00;;;;5051919;28;20204;-86
2022/08/11 02:57:22;;;;;;;3.37;3.07;;;11.70;99.90;12.30;97364.00;;;;5052142;28;20220;-87
2022/08/11 03:00:15;;;;;;;3.47;3.17;;;11.70;99.90;12.30;97367.00;;;;5051758;28;20584;-86
2022/08/11 03:03:21;;;;;;;4.23;3.87;;;11.40;99.90;12.20;97363.00;;;;5051406;28;20311;-87
2022/08/11 03:06:24;;;;;;;8.17;3.20;;;11.70;99.90;12.50;97357.00;;;;5059606;28;20216;-87
2022/08/11 03:09:24;;;;;;;8.07;3.73;;;11.60;99.90;12.60;97361.00;;;;5059449;28;20196;-86
2022/08/11 03:18:45;;;;;;;4.20;3.80;;;11.50;99.90;12.30;97360.00;;;;5061142;28;20192;-86
2022/08/11 03:21:43;;;;;;;3.60;3.30;;;11.50;99.90;12.40;97359.00;;;;5050201;28;20218;-86
2022/08/11 03:24:49;;;;;;;5.73;3.80;;;11.50;99.90;12.20;97372.00;;;;5053934;28;20211;-86
2022/08/11 03:27:50;;;;;;;15.70;3.30;;;11.50;99.90;11.90;97367.00;;;;5050030;28;20204;-86
2022/08/11 03:30:50;;;;;;;4.20;3.77;;;11.40;99.90;11.70;97365.00;;;;5048876;28;20208;-86
2022/08/11 03:34:02;;;;;;;4.07;3.77;;;11.30;99.90;11.90;97363.00;;;;5052758;28;20205;-88
2022/08/11 03:37:51;;;;;;;3.93;3.53;;;11.30;99.90;12.10;97369.00;;;;5058606;28;20777;-86
2022/08/11 03:44:54;;;;;;;9.30;4.03;;;11.30;99.90;11.60;97373.00;;;;5051498;28;20227;-87
2022/08/11 03:48:12;;;;;;;5.43;3.80;;;11.30;99.90;11.90;97372.00;;;;5052190;28;20196;-87
2022/08/11 03:51:19;;;;;;;4.70;3.73;;;11.20;99.90;12.20;97380.00;;;;5060563;28;20197;-88
2022/08/11 03:54:17;;;;;;;4.03;3.63;;;11.30;99.90;12.50;97372.00;;;;5052655;28;20610;-87
2022/08/11 03:58:13;;;;;;;5.07;4.13;;;11.40;99.90;12.60;97373.00;;;;5055634;28;20224;-85
2022/08/11 04:01:40;;;;;;;4.40;3.60;;;11.50;99.90;12.20;97378.00;;;;5050400;28;20192;-84
2022/08/11 04:05:37;;;;;;;4.67;3.87;;;11.60;99.90;11.80;97368.00;;;;5057066;28;20216;-86
2022/08/11 04:09:34;;;;;;;3.83;3.50;;;11.50;99.90;12.00;97366.00;;;;5052075;28;20212;-87
2022/08/11 04:13:09;;;;;;;4.47;3.93;;;11.30;99.90;12.50;97374.00;;;;5055098;28;20212;-86
2022/08/11 04:16:28;;;;;;;3.93;3.57;;;11.40;99.90;12.30;97384.00;;;;5073317;28;20234;-85
2022/08/11 04:20:14;;;;;;;4.00;3.63;;;11.40;99.90;12.30;97380.00;;;;5084544;28;20212;-88
2022/08/11 04:23:25;;;;;;;4.20;3.40;;;11.40;99.90;11.80;97370.00;;;;5055894;28;20224;-86
2022/08/11 04:26:42;;;;;;;7.33;3.73;;;11.40;99.90;11.80;97367.00;;;;5051698;28;20254;-88
2022/08/11 04:29:57;;;;;;;5.90;4.13;;;11.30;99.90;11.90;97368.00;;;;5073462;28;20212;-87
2022/08/11 04:33:30;;;;;;;3.57;3.27;;;11.30;99.90;12.10;97380.00;;;;5064842;28;20217;-86
2022/08/11 04:40:57;;;;;;;4.57;3.67;;;11.20;99.90;12.10;97387.00;;;;5086575;28;20204;-85
2022/08/11 04:44:24;;;;;;;4.13;3.70;;;11.30;99.90;12.50;97394.00;;;;5085912;28;20239;-86
2022/08/11 05:01:41;;;;;;;3.10;2.80;;;12.30;99.90;13.30;97394.00;;;;5076087;28;20193;-86
2022/08/11 05:09:22;;;;;;;4.87;3.47;;;12.50;99.90;12.80;97389.00;;;;5058807;28;20213;-86
2022/08/11 05:12:42;;;;;;;4.67;3.30;;;12.40;99.90;13.00;97387.00;;;;5047365;28;20194;-87
2022/08/11 05:35:12;;;;;;;4.70;3.47;;;13.10;99.90;14.90;97381.00;;;;5075067;28;20211;-90
2022/08/11 05:57:39;;;;;;;3.83;3.50;;;14.20;99.90;15.70;97379.00;;;;5075234;28;20253;-92
2022/08/11 06:00:34;;;;;;;7.43;4.37;;;14.40;99.90;15.70;97369.00;;;;5077965;28;20200;-92
2022/08/11 06:03:28;;;;;;;5.70;4.00;;;14.50;99.90;16.00;97379.00;;;;5075854;28;20230;-91
2022/08/11 06:06:17;;;;;;;7.90;4.33;;;14.60;99.90;16.20;97376.00;;;;5077089;28;20226;-91
2022/08/11 06:09:13;;;;;;;4.03;3.57;;;14.80;99.90;16.60;97376.00;;;;5069712;28;20204;-90
2022/08/11 06:12:09;;;;;;;6.53;3.87;;;13.30;99.90;16.80;97377.00;;;;5064975;28;20267;-92
2022/08/11 06:15:07;;;;;;;4.63;4.00;;;15.20;99.90;16.90;97384.00;;;;5073214;28;20207;-93
2022/08/11 06:18:01;;;;;;;4.83;4.27;;;15.30;99.90;17.40;97369.00;;;;5076227;28;20799;-92
2022/08/11 06:20:54;;;;;;;5.70;4.30;;;15.50;99.90;17.50;97387.00;;;;5069516;28;20211;-92
2022/08/11 06:23:43;;;;;;;4.67;4.03;;;15.80;99.90;17.80;97377.00;;;;5070284;28;20246;-92
2022/08/11 06:26:33;;;;;;;5.10;4.17;;;16.00;99.90;18.20;97380.00;;;;5074954;28;20220;-93
2022/08/11 06:29:31;;;;;;;7.87;4.97;;;16.20;99.90;18.50;97386.00;;;;5072093;28;20204;-92
2022/08/11 06:32:24;;;;;;;6.77;3.80;;;16.50;99.90;18.80;97377.00;;;;5074136;28;20199;-92
2022/08/11 06:35:24;;;;;;;7.03;4.90;;;16.80;99.90;19.00;97378.00;;;;5076765;28;20199;-91
2022/08/11 06:38:26;;;;;;;6.30;4.43;;;16.90;99.90;19.20;97379.00;;;;5067814;28;20265;-93
2022/08/11 06:41:37;;;;;;;8.57;4.63;;;17.20;99.90;19.50;97373.00;;;;5074416;28;20199;-93
2022/08/11 06:44:48;;;;;;;7.67;4.10;;;17.60;99.90;19.50;97375.00;;;;5068623;28;20569;-93
2022/08/11 06:47:46;;;;;;;7.83;4.43;;;17.70;99.90;19.70;97378.00;;;;5063333;28;20216;-93
2022/08/11 06:53:45;;;;;;;8.30;4.37;;;18.10;99.90;20.10;97371.00;;;;5070462;28;20211;-94
2022/08/11 07:03:23;;;;;;;9.47;4.00;;;18.60;99.90;20.70;97367.00;;;;5077256;28;20300;-95
2022/08/11 07:06:41;;;;;;;6.07;3.67;;;18.80;99.90;21.00;97373.00;;;;5081190;28;20224;-93
2022/08/11 07:16:48;;;;;;;8.47;3.87;;;19.50;99.90;21.80;97373.00;;;;5042493;28;20212;-69
2022/08/11 07:29:13;;;;;;;9.57;3.60;;;20.30;99.90;22.60;97367.00;;;;5038057;28;20224;-71
2022/08/11 07:32:26;;;;;;;6.07;3.73;;;20.50;99.90;22.70;97365.00;;;;5037264;28;20589;-69
2022/08/11 07:35:19;;;;;;;6.80;3.80;;;20.70;99.90;22.90;97372.00;;;;5038077;28;20660;-69
2022/08/11 07:38:17;;;;;;;4.70;2.63;;;20.80;99.90;23.00;97362.00;;;;5039682;28;20571;-69
2022/08/11 07:41:10;;;;;;;6.90;3.90;;;21.00;99.90;22.90;97355.00;;;;5044274;28;20726;-69
2022/08/11 07:44:07;;;;;;;5.10;2.93;;;21.10;99.90;23.20;97359.00;;;;5044088;28;20225;-70
2022/08/11 07:53:14;;;;;;;5.60;3.10;;;21.50;99.90;23.50;97342.00;;;;5041680;28;20196;-69
2022/08/11 07:56:05;;;;;;;5.87;3.60;;;21.50;99.90;23.80;97352.00;;;;5036713;28;20725;-70
2022/08/11 08:17:52;;;;;;;4.50;2.53;;;22.80;96.90;25.10;97333.00;;;;5039383;28;20211;-71
2022/08/11 08:20:48;;;;;;;3.53;2.50;;;22.90;96.20;25.40;97333.00;;;;5047829;28;20211;-70
2022/08/11 08:23:39;;;;;;;3.47;2.67;;;23.10;96.00;25.40;97329.00;;;;5044466;28;20213;-71
2022/08/11 08:32:44;;;;;;;3.77;2.47;;;23.60;93.60;26.00;97326.00;;;;5045613;28;20204;-70
2022/08/11 08:35:36;;;;;;;2.23;2.03;;;23.80;92.80;26.10;97319.00;;;;5040456;28;20205;-70
2022/08/11 08:38:26;;;;;;;5.20;2.73;;;24.00;92.70;26.20;97326.00;;;;5044918;28;20707;-70
2022/08/11 08:41:21;;;;;;;3.67;2.40;;;24.10;91.90;26.30;97323.00;;;;5041118;28;20216;-70
2022/08/11 08:44:12;;;;;;;3.20;2.40;;;24.20;91.00;26.60;97321.00;;;;5049262;28;20243;-71
2022/08/11 08:47:24;;;;;;;2.60;2.30;;;24.40;90.90;26.70;97323.00;;;;5048189;28;20294;-71
2022/08/11 08:50:18;;;;;;;3.73;2.77;;;24.60;90.60;26.60;97317.00;;;;5045342;28;20220;-70
2022/08/11 08:53:08;;;;;;;3.40;2.50;;;24.60;89.20;26.60;97316.00;;;;5049229;28;20201;-71
2022/08/11 08:56:01;;;;;;;2.00;1.67;;;24.70;87.20;27.00;97320.00;;;;5047575;28;20644;-71
2022/08/11 08:58:50;;;;;;;4.00;2.13;;;24.90;87.10;27.10;97315.00;;;;5046375;28;20770;-70
2022/08/11 09:01:47;;;;;;;2.90;2.20;;;25.00;83.60;26.60;97309.00;;;;5048187;28;20190;-70
2022/08/11 09:04:37;;;;;;;1.93;1.83;;;25.00;80.50;26.90;97310.00;;;;5048093;28;20220;-70
2022/08/11 09:07:26;;;;;;;3.10;2.37;;;25.00;80.60;27.20;97308.00;;;;5042763;28;20196;-70
2022/08/11 09:10:20;;;;;;;3.77;2.57;;;25.10;81.20;27.10;97306.00;;;;5050579;28;20746;-70
2022/08/11 09:13:10;;;;;;;2.93;2.00;;;25.20;79.20;27.00;97297.00;;;;5037324;28;20221;-70
2022/08/11 09:15:59;;;;;;;2.17;2.00;;;25.30;77.10;25.80;97299.00;;;;5043449;28;20215;-70
2022/08/11 09:18:48;;;;;;;3.00;2.23;;;25.10;75.80;27.20;97302.00;;;;5034224;28;20213;-70
2022/08/11 09:21:41;;;;;;;3.33;2.20;;;25.10;77.60;27.10;97292.00;;;;5046967;28;20218;-70
2022/08/11 09:27:38;;;;;;;5.50;2.60;;;25.40;76.20;27.40;97289.00;;;;5022912;28;20407;-69
2022/08/11 09:30:29;;;;;;;2.97;2.40;;;25.60;77.00;28.20;97298.00;;;;5037655;28;20563;-70
2022/08/11 09:33:18;;;;;;;2.53;2.03;;;25.80;77.60;27.80;97284.00;;;;5040848;28;20206;-71
2022/08/11 09:42:21;;;;;;;3.73;2.50;;;26.20;72.00;28.60;97272.00;;;;5041838;28;20196;-70
2022/08/11 09:45:11;;;;;;;3.83;2.20;;;26.30;72.60;29.10;97268.00;;;;5048030;28;20226;-70
2022/08/11 09:48:06;;;;;;;2.97;2.10;;;26.50;73.20;28.90;97264.00;;;;5040476;28;20205;-71
2022/08/11 09:50:58;;;;;;;2.27;2.00;;;26.80;72.20;28.90;97268.00;;;;5041611;28;20208;-71
2022/08/11 09:53:49;;;;;;;2.53;2.13;;;26.80;72.50;28.70;97266.00;;;;5038468;28;20202;-70
2022/08/11 09:59:44;;;;;;;3.50;1.83;;;27.10;70.00;29.30;97259.00;;;;5035773;28;20217;-70
2022/08/11 10:02:35;;;;;;;4.77;1.97;;;27.30;68.60;28.80;97248.00;;;;5048288;28;20593;-71
2022/08/11 10:08:34;;;;;;;4.37;2.20;;;27.30;66.60;29.50;97237.00;;;;5049985;28;20223;-71
2022/08/11 10:11:25;;;;;;;4.27;1.90;;;27.50;65.10;30.00;97233.00;;;;5047108;28;20212;-69
2022/08/11 10:17:23;;;;;;;2.80;1.57;;;27.80;63.70;29.90;97221.00;;;;5043868;28;20214;-71
2022/08/11 10:20:12;;;;;;;2.13;1.57;;;28.00;62.20;30.40;97213.00;;;;5049036;28;20238;-71
2022/08/11 10:35:34;;;;;;;2.07;1.50;;;28.50;56.10;29.00;97187.00;;;;5048173;28;20214;-70
2022/08/11 10:38:25;;;;;;;1.90;1.63;;;28.00;57.20;29.20;97180.00;;;;5046737;28;20251;-70
2022/08/11 10:44:22;;;;;;;2.87;1.63;;;28.00;55.50;30.80;97175.00;;;;5038866;28;20206;-70
2022/08/11 10:59:46;;;;;;;4.27;2.13;;;29.10;54.40;30.00;97199.00;;;;5047256;28;20226;-71
2022/08/11 11:02:35;;;;;;;2.00;1.80;;;28.70;56.20;29.80;97152.00;;;;5040818;28;20200;-70
2022/08/11 11:05:29;;;;;;;3.63;2.40;;;28.60;56.00;31.90;97164.00;;;;5041373;28;20643;-71
2022/08/11 11:18:06;;;;;;;2.07;1.87;;;30.40;52.40;29.40;97137.00;;;;5044677;28;20848;-70
2022/08/11 11:20:59;;;;;;;2.00;1.55;;;29.60;53.80;31.50;97138.00;;;;5041525;28;20223;-71
2022/08/11 11:24:10;;;;;;;2.08;1.75;;;29.60;55.80;33.20;97139.00;;;;5044018;28;20218;-70
2022/08/11 11:27:08;;;;;;;4.22;2.15;;;30.00;54.80;34.10;97136.00;;;;5044473;28;20230;-70
2022/08/11 11:30:06;;;;;;;1.80;1.70;;;30.60;56.00;33.80;97189.00;;;;5082934;22;20234;-83
2022/08/11 11:33:06;;;;;;;2.22;1.60;;;31.10;54.20;34.20;97152.00;;;;5078893;28;20230;-85
2022/08/11 11:36:11;;;;;;;2.90;1.98;;;31.40;53.50;34.70;97186.00;;;;5062780;28;20195;-84
2022/08/11 11:39:02;;;;;;;1.92;1.58;;;31.70;53.90;33.40;97135.00;;;;5060868;28;20215;-85
2022/08/11 11:41:54;;;;;;;2.60;2.40;;;31.50;52.60;34.40;97140.00;;;;5068871;28;20204;-87
2022/08/11 11:44:45;;;;;;;1.33;1.23;;;31.70;52.50;32.40;97136.00;;;;5053792;28;20217;-86
2022/08/11 11:47:36;;;;;;;3.67;1.70;;;31.80;50.00;31.30;97130.00;;;;5048382;28;20205;-87
2022/08/11 11:50:28;;;;;;;4.35;1.70;;;31.60;49.20;33.10;97128.00;;;;5051722;28;20204;-87
2022/08/11 11:53:18;;;;;;;3.15;2.20;;;31.20;50.50;34.20;97132.00;;;;5055769;28;20703;-86
2022/08/11 11:56:09;;;;;;;1.85;1.48;;;31.50;54.00;35.00;97127.00;;;;5060286;28;20211;-86
2022/08/11 12:02:05;;;;;;;4.20;2.15;;;32.40;52.20;34.00;97109.00;;;;5060196;28;20596;-87
2022/08/11 12:04:54;;;;;;;3.28;1.55;;;32.50;50.10;32.70;97101.00;;;;5057467;28;20206;-86
2022/08/11 12:13:39;;;;;;;2.00;1.65;;;32.40;51.10;34.00;97161.00;;;;5052129;28;20207;-86
2022/08/11 12:14:06;;;;;;;2.00;1.65;;;32.20;50.30;34.70;97090.00;;;;5057989;28;20721;-85
2022/08/11 12:16:56;;;;;;;1.50;1.40;;;32.20;49.60;33.30;97095.00;;;;5050557;28;20207;-86
2022/08/11 12:19:45;;;;;;;5.13;1.63;;;32.20;48.60;35.40;97079.00;;;;5051458;28;20195;-86
2022/08/11 12:29:12;;;;;;;2.10;1.80;;;32.80;49.50;36.40;97070.00;;;;5052813;28;20261;-86
2022/08/11 12:32:02;;;;;;;1.75;1.65;;;33.30;49.50;35.60;97069.00;;;;5050504;28;20206;-86
2022/08/11 12:34:51;;;;;;;3.17;1.73;;;33.40;48.00;34.40;97152.00;;;;5049068;28;20196;-87
2022/08/11 12:37:44;;;;;;;1.77;1.60;;;33.20;47.60;35.10;97085.00;;;;5047899;28;20215;-87
2022/08/11 12:47:17;;;;;;;2.88;1.55;;;31.70;48.30;33.00;97085.00;;;;5062767;28;20220;-86
2022/08/11 12:53:14;;;;;;;1.80;1.70;;;30.90;48.40;30.10;97053.00;;;;5054980;28;20219;-86
2022/08/11 13:05:33;;;;;;;5.63;1.80;;;29.80;52.30;33.40;97053.00;;;;5073381;28;20206;-86
2022/08/11 13:08:24;;;;;;;4.45;1.90;;;30.50;51.30;33.10;97037.00;;;;5087547;28;20198;-86
2022/08/11 13:14:22;;;;;;;2.50;2.20;;;31.40;49.20;35.20;97033.00;;;;5091692;28;20217;-87
2022/08/11 13:17:23;;;;;;;1.52;1.42;;;31.90;47.70;33.80;97031.00;;;;5080440;28;20210;-87
2022/08/11 13:20:18;;;;;;;2.63;1.33;;;32.20;47.60;34.50;97029.00;;;;5081496;28;20200;-87
2022/08/11 13:23:11;;;;;;;1.80;1.70;;;32.40;48.70;37.20;97022.00;;;;5098689;28;20222;-87
2022/08/11 13:26:02;;;;;;;4.03;1.88;;;33.00;49.50;36.50;97031.00;;;;5079561;28;20203;-87
2022/08/11 13:28:52;;;;;;;3.80;2.05;;;33.40;47.70;38.40;97032.00;;;;5080695;28;20225;-87
2022/08/11 13:31:42;;;;;;;1.88;1.45;;;34.20;48.80;38.40;97018.00;;;;5074962;28;20207;-86
2022/08/11 13:34:32;;;;;;;1.85;1.73;;;34.90;47.00;37.30;97014.00;;;;5085774;28;20206;-88
2022/08/11 13:37:23;;;;;;;2.25;1.90;;;35.40;45.90;34.40;97000.00;;;;5080342;28;20228;-87
2022/08/11 13:40:13;;;;;;;3.17;1.77;;;35.00;43.80;33.90;97002.00;;;;5078739;28;20195;-86
2022/08/11 13:43:03;;;;;;;3.65;1.70;;;34.00;44.10;36.30;97044.00;;;;5083869;28;20623;-87
2022/08/11 13:46:17;;;;;;;2.30;1.70;;;33.70;46.70;32.90;97071.00;;;;5083719;28;20670;-86
2022/08/11 13:49:04;;;;;;;2.25;1.70;;;32.10;45.00;30.90;97061.00;;;;5081193;28;20203;-87
2022/08/11 13:51:55;;;;;;;1.65;1.55;;;31.90;45.40;32.00;96986.00;;;;5077050;28;20203;-85
2022/08/11 13:54:48;;;;;;;3.35;1.50;;;31.30;46.70;33.30;96993.00;;;;5067667;28;20535;-85
2022/08/11 13:57:39;;;;;;;2.30;1.60;;;31.40;47.50;35.80;97001.00;;;;5084292;28;20227;-87
2022/08/11 14:00:30;;;;;;;2.38;2.17;;;31.90;48.20;36.10;96999.00;;;;5078348;28;20460;-87
2022/08/11 14:03:24;;;;;;;3.00;2.03;;;32.60;48.70;36.90;97067.00;;;;5079349;28;20219;-86
2022/08/11 14:06:14;;;;;;;3.42;1.85;;;33.20;47.20;36.40;97062.00;;;;5080556;28;20210;-87
2022/08/11 14:09:04;;;;;;;1.88;1.73;;;33.50;47.80;36.90;97051.00;;;;5077422;28;20195;-86
2022/08/11 14:15:10;;;;;;;1.60;1.50;;;34.30;46.80;36.10;97063.00;;;;5088663;28;20211;-87
2022/08/11 14:18:07;;;;;;;2.22;1.73;;;34.30;46.30;35.50;97070.00;;;;5076284;28;20231;-87
2022/08/11 14:24:10;;;;;;;2.67;2.00;;;33.50;46.20;33.50;97058.00;;;;5074188;28;20228;-86
2022/08/11 14:27:01;;;;;;;1.90;1.80;;;32.90;46.30;31.60;97061.00;;;;5080793;28;20493;-86
2022/08/11 14:29:49;;;;;;;2.72;1.85;;;32.20;46.70;31.60;97051.00;;;;5086285;28;20225;-86
2022/08/11 14:32:38;;;;;;;1.48;1.38;;;31.30;47.40;31.50;97052.00;;;;5080973;28;20432;-86
2022/08/11 14:35:29;;;;;;;2.05;1.75;;;30.80;48.90;31.60;96987.00;;;;5074695;28;20211;-86
2022/08/11 14:38:18;;;;;;;2.55;1.60;;;30.40;49.00;34.20;96982.00;;;;5074881;28;20712;-85
2022/08/11 14:47:23;;;;;;;2.78;1.88;;;32.00;49.40;35.10;97043.00;;;;5073905;28;20199;-86
2022/08/11 14:50:17;;;;;;;4.72;1.92;;;32.40;48.30;34.40;97019.00;;;;5074556;28;20206;-86
2022/08/11 14:53:09;;;;;;;3.00;1.67;;;32.40;47.90;34.70;97009.00;;;;5074871;28;20589;-86
2022/08/11 14:59:05;;;;;;;2.97;1.60;;;32.70;47.50;34.70;96974.00;;;;5084329;28;20215;-86
2022/08/11 15:05:06;;;;;;;2.53;1.50;;;33.10;47.30;34.20;96985.00;;;;5085942;28;20204;-86
2022/08/11 15:07:56;;;;;;;1.63;1.52;;;32.90;46.40;34.00;97025.00;;;;5078608;28;20210;-86
2022/08/11 15:10:46;;;;;;;4.68;1.90;;;32.70;45.90;33.40;97018.00;;;;5070639;28;20203;-86
2022/08/11 15:13:37;;;;;;;7.05;1.88;;;32.40;46.00;32.60;97008.00;;;;5074258;28;20216;-86
2022/08/11 15:24:17;;;;;;;1.90;1.70;;;31.60;46.60;31.30;97028.00;;;;5077507;28;20204;-86
2022/08/11 15:25:58;;;;;;;4.05;2.22;;;30.40;48.00;32.20;97024.00;;;;5075825;28;20838;-86
2022/08/11 15:38:14;;;;;;;2.22;2.03;;;30.10;49.80;31.20;97024.00;;;;5066973;28;20223;-85
2022/08/11 15:47:59;;;;;;;2.27;1.77;;;29.40;50.50;29.90;97022.00;;;;5004720;28;20729;-84
2022/08/11 15:50:54;;;;;;;1.70;1.53;;;28.70;50.30;30.10;97020.00;;;;5011307;28;20210;-85
2022/08/11 15:53:51;;;;;;;2.10;1.90;;;28.70;51.00;30.00;97019.00;;;;5076098;28;20216;-85
2022/08/11 15:56:44;;;;;;;2.47;1.77;;;28.50;51.50;28.70;97024.00;;;;5069774;28;20205;-85
2022/08/11 16:05:50;;;;;;;1.43;1.33;;;;;28.80;97025.00;;;;5076547;28;20702;-83
2022/08/11 16:08:41;;;;;;;2.80;1.23;;;;;28.90;97027.00;;;;5077013;28;20206;-85
2022/08/11 16:11:31;;;;;;;1.50;1.40;;;;;28.80;97033.00;;;;5075887;28;20221;-83
2022/08/11 16:17:30;;;;;;;2.10;1.70;;;;;28.70;97020.00;;;;5071780;28;20225;-84
2022/08/11 16:20:21;;;;;;;2.47;1.57;;;;;28.60;97024.00;;;;5082494;28;20207;-84
2022/08/11 16:23:14;;;;;;;2.80;1.53;;;;;28.50;97030.00;;;;5084035;28;20617;-84
2022/08/11 16:26:04;;;;;;;1.50;1.40;;;;;28.50;97031.00;;;;5076069;28;20200;-83
2022/08/11 16:28:54;;;;;;;2.10;1.90;;;;;28.40;97032.00;;;;5097662;28;20207;-83
2022/08/11 16:32:15;;;;;;;4.70;1.80;;;;;28.30;97030.00;;;;5093485;28;20215;-83
2022/08/11 16:41:14;;;;;;;2.10;1.57;;;;;27.80;97040.00;;;;5088218;28;20209;-84
2022/08/11 16:47:15;;;;;;;2.57;2.10;;;;;27.30;97030.00;;;;5079536;28;20206;-83
2022/08/11 16:50:04;;;;;;;4.00;1.87;;;;;27.40;97041.00;;;;5079698;28;20205;-84
2022/08/11 16:52:53;;;;;;;1.83;1.50;;;;;27.30;97038.00;;;;5077626;28;20236;-83
2022/08/11 16:55:43;;;;;;;1.50;1.37;;;;;27.20;97034.00;;;;5080975;28;20200;-84
2022/08/11 17:01:44;;;;;;;2.43;1.63;;;;;26.90;97042.00;;;;5070122;28;20197;-85
2022/08/11 17:14:02;;;;;;;5.60;2.13;;;;;26.70;97050.00;;;;5052287;28;20219;-85
2022/08/11 17:16:51;;;;;;;2.27;1.40;;;;;26.50;97054.00;;;;5079114;28;20212;-84
2022/08/11 17:19:49;;;;;;;2.33;2.07;;;25.20;54.70;26.50;97048.00;;;;5080993;28;20707;-82
2022/08/11 17:25:47;;;;;;;2.03;1.70;;;24.90;55.90;26.20;97048.00;;;;5082619;28;20702;-84
2022/08/11 17:28:37;;;;;;;2.00;1.73;;;24.90;56.00;26.20;97050.00;;;;5080925;28;20212;-83
2022/08/11 17:37:42;;;;;;;1.93;1.70;;;24.60;56.70;25.90;97040.00;;;;5042821;28;20201;-89
2022/08/11 17:40:35;;;;;;;1.77;1.67;;;24.50;57.00;25.70;97051.00;;;;5044642;28;20204;-89
2022/08/11 17:49:41;;;;;;;2.03;1.40;;;24.30;57.30;25.60;97055.00;;;;5044021;28;21067;-88
2022/08/11 18:03:27;;;;;;;2.03;1.80;;;24.00;59.70;25.40;97065.00;;;;5040304;28;20201;-89
2022/08/11 18:05:10;;;;;;;1.60;1.50;;;23.90;61.60;25.20;97065.00;;;;5050022;28;20684;-88
